sensor_id;sensor_type;location;lat;lon;timestamp;pressure;altitude;pressure_sealevel;temperature
65180;BMP280;51849;47.476;8.084;2022-10-22T00:00:25;96390.19;;;14.48
65180;BMP280;51849;47.476;8.084;2022-10-22T00:02:51;96396.22;;;14.43
65180;BMP280;51849;47.476;8.084;2022-10-22T00:05:17;96403.88;;;14.41
65180;BMP280;51849;47.476;8.084;2022-10-22T00:07:42;96418.41;;;14.42
65180;BMP280;51849;47.476;8.084;2022-10-22T00:10:08;96407.63;;;14.46
65180;BMP280;51849;47.476;8.084;2022-10-22T00:12:34;96414.19;;;14.34
65180;BMP280;51849;47.476;8.084;2022-10-22T00:15:01;96421.09;;;14.37
65180;BMP280;51849;47.476;8.084;2022-10-22T00:17:27;96421.81;;;14.37
65180;BMP280;51849;47.476;8.084;2022-10-22T00:19:52;96414.91;;;14.34
65180;BMP280;51849;47.476;8.084;2022-10-22T00:22:18;96406.31;;;14.34
65180;BMP280;51849;47.476;8.084;2022-10-22T00:24:44;96403.00;;;14.33
65180;BMP280;51849;47.476;8.084;2022-10-22T00:27:10;96396.06;;;14.36
65180;BMP280;51849;47.476;8.084;2022-10-22T00:29:36;96393.44;;;14.36
65180;BMP280;51849;47.476;8.084;2022-10-22T00:32:03;96398.41;;;14.39
65180;BMP280;51849;47.476;8.084;2022-10-22T00:34:29;96391.44;;;14.42
65180;BMP280;51849;47.476;8.084;2022-10-22T00:36:55;96391.16;;;14.45
65180;BMP280;51849;47.476;8.084;2022-10-22T00:39:22;96381.44;;;14.40
65180;BMP280;51849;47.476;8.084;2022-10-22T00:41:52;96357.41;;;14.36
65180;BMP280;51849;47.476;8.084;2022-10-22T00:47:22;96361.72;;;14.34
65180;BMP280;51849;47.476;8.084;2022-10-22T00:49:49;96365.78;;;14.35
65180;BMP280;51849;47.476;8.084;2022-10-22T00:52:16;96390.03;;;14.41
65180;BMP280;51849;47.476;8.084;2022-10-22T00:54:42;96408.91;;;14.39
65180;BMP280;51849;47.476;8.084;2022-10-22T00:57:08;96396.34;;;14.51
65180;BMP280;51849;47.476;8.084;2022-10-22T00:59:34;96400.69;;;14.48
65180;BMP280;51849;47.476;8.084;2022-10-22T01:02:00;96407.19;;;14.42
65180;BMP280;51849;47.476;8.084;2022-10-22T01:04:26;96404.56;;;14.42
65180;BMP280;51849;47.476;8.084;2022-10-22T01:06:52;96408.97;;;14.52
65180;BMP280;51849;47.476;8.084;2022-10-22T01:09:42;96385.50;;;14.41
65180;BMP280;51849;47.476;8.084;2022-10-22T01:26:36;96356.97;;;14.51
65180;BMP280;51849;47.476;8.084;2022-10-22T01:29:17;96361.38;;;14.43
65180;BMP280;51849;47.476;8.084;2022-10-22T01:31:55;96364.50;;;14.41
65180;BMP280;51849;47.476;8.084;2022-10-22T01:34:23;96361.38;;;14.43
65180;BMP280;51849;47.476;8.084;2022-10-22T01:36:50;96356.13;;;14.43
65180;BMP280;51849;47.476;8.084;2022-10-22T01:39:18;96347.91;;;14.52
65180;BMP280;51849;47.476;8.084;2022-10-22T01:41:45;96355.78;;;14.52
65180;BMP280;51849;47.476;8.084;2022-10-22T01:44:29;96348.91;;;14.49
65180;BMP280;51849;47.476;8.084;2022-10-22T01:47:17;96354.72;;;14.60
65180;BMP280;51849;47.476;8.084;2022-10-22T01:50:16;96355.44;;;14.61
65180;BMP280;51849;47.476;8.084;2022-10-22T01:53:10;96367.06;;;14.65
65180;BMP280;51849;47.476;8.084;2022-10-22T01:55:42;96379.78;;;14.61
65180;BMP280;51849;47.476;8.084;2022-10-22T02:00:46;96383.78;;;14.81
65180;BMP280;51849;47.476;8.084;2022-10-22T02:03:19;96385.06;;;14.74
65180;BMP280;51849;47.476;8.084;2022-10-22T02:05:53;96389.09;;;14.75
65180;BMP280;51849;47.476;8.084;2022-10-22T02:08:24;96385.06;;;14.74
65180;BMP280;51849;47.476;8.084;2022-10-22T02:10:52;96386.69;;;14.77
65180;BMP280;51849;47.476;8.084;2022-10-22T02:13:31;96386.97;;;14.74
65180;BMP280;51849;47.476;8.084;2022-10-22T02:16:01;96387.28;;;14.70
65180;BMP280;51849;47.476;8.084;2022-10-22T02:18:30;96389.19;;;14.70
65180;BMP280;51849;47.476;8.084;2022-10-22T02:20:58;96387.41;;;14.78
65180;BMP280;51849;47.476;8.084;2022-10-22T02:23:25;96390.03;;;14.78
65180;BMP280;51849;47.476;8.084;2022-10-22T02:25:59;96380.94;;;14.79
65180;BMP280;51849;47.476;8.084;2022-10-22T02:28:49;96392.03;;;14.72
65180;BMP280;51849;47.476;8.084;2022-10-22T02:31:21;96386.78;;;14.72
65180;BMP280;51849;47.476;8.084;2022-10-22T02:33:52;96375.75;;;14.73
65180;BMP280;51849;47.476;8.084;2022-10-22T02:36:22;96371.22;;;14.74
65180;BMP280;51849;47.476;8.084;2022-10-22T02:38:49;96376.13;;;14.83
65180;BMP280;51849;47.476;8.084;2022-10-22T02:41:18;96379.72;;;14.80
65180;BMP280;51849;47.476;8.084;2022-10-22T02:43:49;96378.81;;;14.77
65180;BMP280;51849;47.476;8.084;2022-10-22T02:46:16;96383.38;;;14.77
65180;BMP280;51849;47.476;8.084;2022-10-22T02:48:41;96387.41;;;14.78
65180;BMP280;51849;47.476;8.084;2022-10-22T02:51:07;96383.06;;;14.80
65180;BMP280;51849;47.476;8.084;2022-10-22T02:53:32;96395.69;;;14.82
65180;BMP280;51849;47.476;8.084;2022-10-22T02:55:58;96389.25;;;14.83
65180;BMP280;51849;47.476;8.084;2022-10-22T02:58:24;96393.16;;;14.76
65180;BMP280;51849;47.476;8.084;2022-10-22T03:00:50;96392.59;;;14.83
65180;BMP280;51849;47.476;8.084;2022-10-22T03:03:15;96386.31;;;14.86
65180;BMP280;51849;47.476;8.084;2022-10-22T03:05:41;96388.53;;;14.82
65180;BMP280;51849;47.476;8.084;2022-10-22T03:08:07;96395.69;;;14.82
65180;BMP280;51849;47.476;8.084;2022-10-22T03:10:32;96393.88;;;14.77
65180;BMP280;51849;47.476;8.084;2022-10-22T03:12:58;96388.31;;;14.80
65180;BMP280;51849;47.476;8.084;2022-10-22T03:15:24;96388.31;;;14.80
65180;BMP280;51849;47.476;8.084;2022-10-22T03:17:49;96388.81;;;14.79
65180;BMP280;51849;47.476;8.084;2022-10-22T03:20:15;96383.06;;;14.80
65180;BMP280;51849;47.476;8.084;2022-10-22T03:22:41;96387.81;;;14.82
65180;BMP280;51849;47.476;8.084;2022-10-22T03:25:11;96378.75;;;14.83
65180;BMP280;51849;47.476;8.084;2022-10-22T03:27:39;96372.50;;;14.86
65180;BMP280;51849;47.476;8.084;2022-10-22T03:30:05;96380.94;;;14.79
65180;BMP280;51849;47.476;8.084;2022-10-22T03:32:31;96392.84;;;14.80
65180;BMP280;51849;47.476;8.084;2022-10-22T03:34:57;96392.03;;;14.72
65180;BMP280;51849;47.476;8.084;2022-10-22T03:37:24;96391.31;;;14.71
65180;BMP280;51849;47.476;8.084;2022-10-22T03:39:50;96390.38;;;14.69
65180;BMP280;51849;47.476;8.084;2022-10-22T03:42:16;96394.44;;;14.70
65180;BMP280;51849;47.476;8.084;2022-10-22T03:44:42;96403.34;;;14.80
65180;BMP280;51849;47.476;8.084;2022-10-22T03:47:08;96405.28;;;14.79
65180;BMP280;51849;47.476;8.084;2022-10-22T03:49:34;96408.41;;;14.78
65180;BMP280;51849;47.476;8.084;2022-10-22T03:52:11;96401.75;;;14.77
65180;BMP280;51849;47.476;8.084;2022-10-22T03:54:38;96406.78;;;14.75
65180;BMP280;51849;47.476;8.084;2022-10-22T03:57:04;96407.00;;;14.58
65180;BMP280;51849;47.476;8.084;2022-10-22T03:59:35;96410.75;;;14.63
65180;BMP280;51849;47.476;8.084;2022-10-22T04:02:01;96414.69;;;14.51
65180;BMP280;51849;47.476;8.084;2022-10-22T04:04:27;96417.69;;;14.42
65180;BMP280;51849;47.476;8.084;2022-10-22T04:06:52;96419.63;;;14.41
65180;BMP280;51849;47.476;8.084;2022-10-22T04:09:18;96417.28;;;14.38
65180;BMP280;51849;47.476;8.084;2022-10-22T04:11:44;96427.50;;;14.41
65180;BMP280;51849;47.476;8.084;2022-10-22T04:14:09;96426.59;;;14.33
65180;BMP280;51849;47.476;8.084;2022-10-22T04:16:39;96424.06;;;14.28
65180;BMP280;51849;47.476;8.084;2022-10-22T04:19:05;96426.34;;;14.37
65180;BMP280;51849;47.476;8.084;2022-10-22T04:21:31;96425.63;;;14.36
65180;BMP280;51849;47.476;8.084;2022-10-22T04:23:56;96428.53;;;14.33
65180;BMP280;51849;47.476;8.084;2022-10-22T04:26:24;96435.00;;;14.32
65180;BMP280;51849;47.476;8.084;2022-10-22T04:28:50;96447.59;;;14.33
65180;BMP280;51849;47.476;8.084;2022-10-22T04:31:19;96445.19;;;14.35
65180;BMP280;51849;47.476;8.084;2022-10-22T04:33:45;96443.28;;;14.36
65180;BMP280;51849;47.476;8.084;2022-10-22T04:36:15;96448.31;;;14.34
65180;BMP280;51849;47.476;8.084;2022-10-22T04:38:42;96452.25;;;14.46
65180;BMP280;51849;47.476;8.084;2022-10-22T04:43:37;96439.91;;;14.41
65180;BMP280;51849;47.476;8.084;2022-10-22T04:46:03;96440.75;;;14.49
65180;BMP280;51849;47.476;8.084;2022-10-22T04:48:29;96437.59;;;14.56
65180;BMP280;51849;47.476;8.084;2022-10-22T04:50:56;96434.38;;;14.63
65180;BMP280;51849;47.476;8.084;2022-10-22T04:53:22;96433.19;;;14.64
65180;BMP280;51849;47.476;8.084;2022-10-22T04:55:48;96442.09;;;14.74
65180;BMP280;51849;47.476;8.084;2022-10-22T04:58:14;96450.75;;;14.69
65180;BMP280;51849;47.476;8.084;2022-10-22T05:00:39;96458.16;;;14.70
65180;BMP280;51849;47.476;8.084;2022-10-22T05:03:05;96453.88;;;14.67
65180;BMP280;51849;47.476;8.084;2022-10-22T05:05:31;96459.84;;;14.68
65180;BMP280;51849;47.476;8.084;2022-10-22T05:07:57;96451.91;;;14.73
65180;BMP280;51849;47.476;8.084;2022-10-22T05:10:23;96452.34;;;14.77
65180;BMP280;51849;47.476;8.084;2022-10-22T05:12:48;96456.59;;;14.80
65180;BMP280;51849;47.476;8.084;2022-10-22T05:15:14;96458.03;;;14.81
65180;BMP280;51849;47.476;8.084;2022-10-22T05:17:40;96455.94;;;14.74
65180;BMP280;51849;47.476;8.084;2022-10-22T05:20:06;96459.53;;;14.77
65180;BMP280;51849;47.476;8.084;2022-10-22T05:22:32;96459.72;;;14.79
65180;BMP280;51849;47.476;8.084;2022-10-22T05:24:59;96463.41;;;14.70
65180;BMP280;51849;47.476;8.084;2022-10-22T05:27:25;96465.03;;;14.73
65180;BMP280;51849;47.476;8.084;2022-10-22T05:29:51;96463.63;;;14.72
65180;BMP280;51849;47.476;8.084;2022-10-22T05:32:17;96465.47;;;14.77
65180;BMP280;51849;47.476;8.084;2022-10-22T05:34:42;96477.91;;;14.77
65180;BMP280;51849;47.476;8.084;2022-10-22T05:37:08;96469.31;;;14.76
65180;BMP280;51849;47.476;8.084;2022-10-22T05:39:34;96472.16;;;14.78
65180;BMP280;51849;47.476;8.084;2022-10-22T05:42:04;96473.78;;;14.81
65180;BMP280;51849;47.476;8.084;2022-10-22T05:44:29;96469.22;;;14.82
65180;BMP280;51849;47.476;8.084;2022-10-22T05:46:55;96469.94;;;14.82
65180;BMP280;51849;47.476;8.084;2022-10-22T05:49:21;96475.28;;;14.77
65180;BMP280;51849;47.476;8.084;2022-10-22T05:51:46;96483.16;;;14.77
65180;BMP280;51849;47.476;8.084;2022-10-22T05:54:19;96492.22;;;14.76
65180;BMP280;51849;47.476;8.084;2022-10-22T05:56:47;96484.56;;;14.78
65180;BMP280;51849;47.476;8.084;2022-10-22T05:59:12;96489.53;;;14.81
65180;BMP280;51849;47.476;8.084;2022-10-22T06:01:38;96484.06;;;14.79
65180;BMP280;51849;47.476;8.084;2022-10-22T06:04:06;96484.34;;;14.76
65180;BMP280;51849;47.476;8.084;2022-10-22T06:06:46;96478.44;;;14.70
65180;BMP280;51849;47.476;8.084;2022-10-22T06:09:14;96489.59;;;14.76
65180;BMP280;51849;47.476;8.084;2022-10-22T06:11:41;96486.97;;;14.76
65180;BMP280;51849;47.476;8.084;2022-10-22T06:14:08;96490.38;;;14.71
65180;BMP280;51849;47.476;8.084;2022-10-22T06:16:36;96494.28;;;14.83
65180;BMP280;51849;47.476;8.084;2022-10-22T06:19:02;96489.81;;;14.78
65180;BMP280;51849;47.476;8.084;2022-10-22T06:21:28;96492.53;;;14.72
65180;BMP280;51849;47.476;8.084;2022-10-22T06:23:55;96498.47;;;14.73
65180;BMP280;51849;47.476;8.084;2022-10-22T06:26:21;96509.88;;;14.75
65180;BMP280;51849;47.476;8.084;2022-10-22T06:28:47;96527.56;;;14.75
65180;BMP280;51849;47.476;8.084;2022-10-22T06:31:13;96530.59;;;14.79
65180;BMP280;51849;47.476;8.084;2022-10-22T06:33:39;96525.72;;;14.88
65180;BMP280;51849;47.476;8.084;2022-10-22T06:36:16;96533.47;;;14.81
65180;BMP280;51849;47.476;8.084;2022-10-22T06:38:42;96532.25;;;14.82
65180;BMP280;51849;47.476;8.084;2022-10-22T06:41:13;96530.06;;;14.86
65180;BMP280;51849;47.476;8.084;2022-10-22T06:43:41;96530.91;;;14.94
65180;BMP280;51849;47.476;8.084;2022-10-22T06:46:09;96538.72;;;14.99
65180;BMP280;51849;47.476;8.084;2022-10-22T06:48:36;96544.88;;;15.02
65180;BMP280;51849;47.476;8.084;2022-10-22T06:51:08;96540.28;;;15.08
65180;BMP280;51849;47.476;8.084;2022-10-22T06:53:34;96558.72;;;15.02
65180;BMP280;51849;47.476;8.084;2022-10-22T06:56:12;96544.63;;;15.06
65180;BMP280;51849;47.476;8.084;2022-10-22T06:58:38;96549.38;;;15.07
65180;BMP280;51849;47.476;8.084;2022-10-22T07:01:09;96556.06;;;15.08
65180;BMP280;51849;47.476;8.084;2022-10-22T07:03:36;96561.22;;;15.14
65180;BMP280;51849;47.476;8.084;2022-10-22T07:06:04;96560.25;;;15.17
65180;BMP280;51849;47.476;8.084;2022-10-22T07:08:30;96562.16;;;15.16
65180;BMP280;51849;47.476;8.084;2022-10-22T07:11:08;96564.38;;;15.12
65180;BMP280;51849;47.476;8.084;2022-10-22T07:13:34;96582.06;;;15.12
65180;BMP280;51849;47.476;8.084;2022-10-22T07:16:02;96577.22;;;15.16
65180;BMP280;51849;47.476;8.084;2022-10-22T07:18:29;96585.41;;;15.12
65180;BMP280;51849;47.476;8.084;2022-10-22T07:20:55;96582.97;;;15.14
65180;BMP280;51849;47.476;8.084;2022-10-22T07:23:20;96582.25;;;15.14
65180;BMP280;51849;47.476;8.084;2022-10-22T07:25:46;96587.50;;;15.14
65180;BMP280;51849;47.476;8.084;2022-10-22T07:28:12;96587.25;;;15.17
65180;BMP280;51849;47.476;8.084;2022-10-22T07:30:38;96590.75;;;15.20
65180;BMP280;51849;47.476;8.084;2022-10-22T07:33:04;96593.91;;;15.18
65180;BMP280;51849;47.476;8.084;2022-10-22T07:35:30;96606.75;;;15.22
65180;BMP280;51849;47.476;8.084;2022-10-22T07:37:56;96602.41;;;15.24
65180;BMP280;51849;47.476;8.084;2022-10-22T07:40:22;96610.50;;;15.26
65180;BMP280;51849;47.476;8.084;2022-10-22T07:42:48;96608.13;;;15.28
65180;BMP280;51849;47.476;8.084;2022-10-22T07:45:13;96614.44;;;15.38
65180;BMP280;51849;47.476;8.084;2022-10-22T07:47:39;96612.88;;;15.48
65180;BMP280;51849;47.476;8.084;2022-10-22T07:50:05;96614.38;;;15.62
65180;BMP280;51849;47.476;8.084;2022-10-22T07:52:32;96622.16;;;15.68
65180;BMP280;51849;47.476;8.084;2022-10-22T07:54:58;96616.06;;;15.78
65180;BMP280;51849;47.476;8.084;2022-10-22T07:57:23;96614.97;;;15.87
65180;BMP280;51849;47.476;8.084;2022-10-22T07:59:49;96616.31;;;15.93
65180;BMP280;51849;47.476;8.084;2022-10-22T08:02:20;96619.44;;;15.92
65180;BMP280;51849;47.476;8.084;2022-10-22T08:04:46;96617.59;;;15.87
65180;BMP280;51849;47.476;8.084;2022-10-22T08:07:12;96614.66;;;15.90
65180;BMP280;51849;47.476;8.084;2022-10-22T08:09:40;96613.25;;;15.89
65180;BMP280;51849;47.476;8.084;2022-10-22T08:12:06;96617.59;;;15.87
65180;BMP280;51849;47.476;8.084;2022-10-22T08:14:32;96617.59;;;15.87
65180;BMP280;51849;47.476;8.084;2022-10-22T08:16:57;96612.75;;;15.91
65180;BMP280;51849;47.476;8.084;2022-10-22T08:19:23;96614.59;;;15.96
65180;BMP280;51849;47.476;8.084;2022-10-22T08:21:49;96617.13;;;16.01
65180;BMP280;51849;47.476;8.084;2022-10-22T08:24:15;96614.41;;;16.07
65180;BMP280;51849;47.476;8.084;2022-10-22T08:26:40;96621.00;;;16.13
65180;BMP280;51849;47.476;8.084;2022-10-22T08:29:06;96614.25;;;16.18
65180;BMP280;51849;47.476;8.084;2022-10-22T08:31:33;96617.81;;;16.33
65180;BMP280;51849;47.476;8.084;2022-10-22T08:33:59;96623.81;;;16.47
65180;BMP280;51849;47.476;8.084;2022-10-22T08:36:24;96624.63;;;16.55
65180;BMP280;51849;47.476;8.084;2022-10-22T08:38:50;96627.97;;;16.69
65180;BMP280;51849;47.476;8.084;2022-10-22T08:41:21;96627.06;;;16.79
65180;BMP280;51849;47.476;8.084;2022-10-22T08:43:59;96624.84;;;16.83
65180;BMP280;51849;47.476;8.084;2022-10-22T08:48:59;96630.38;;;16.93
65180;BMP280;51849;47.476;8.084;2022-10-22T08:51:30;96624.63;;;17.07
65180;BMP280;51849;47.476;8.084;2022-10-22T08:56:24;96624.38;;;17.18
65180;BMP280;51849;47.476;8.084;2022-10-22T09:01:35;96630.94;;;17.38
65180;BMP280;51849;47.476;8.084;2022-10-22T09:06:41;96640.03;;;17.50
65180;BMP280;51849;47.476;8.084;2022-10-22T09:09:15;96642.00;;;17.57
65180;BMP280;51849;47.476;8.084;2022-10-22T09:11:44;96638.38;;;17.60
65180;BMP280;51849;47.476;8.084;2022-10-22T09:14:14;96650.50;;;17.63
65180;BMP280;51849;47.476;8.084;2022-10-22T09:17:04;96646.28;;;17.60
65180;BMP280;51849;47.476;8.084;2022-10-22T09:19:40;96640.75;;;17.71
65180;BMP280;51849;47.476;8.084;2022-10-22T09:24:47;96646.22;;;17.73
65180;BMP280;51849;47.476;8.084;2022-10-22T09:27:25;96643.59;;;17.73
65180;BMP280;51849;47.476;8.084;2022-10-22T09:29:51;96649.47;;;17.79
65180;BMP280;51849;47.476;8.084;2022-10-22T09:32:17;96653.38;;;17.85
65180;BMP280;51849;47.476;8.084;2022-10-22T09:34:44;96658.84;;;17.87
65180;BMP280;51849;47.476;8.084;2022-10-22T09:37:10;96656.28;;;17.74
65180;BMP280;51849;47.476;8.084;2022-10-22T09:39:43;96661.00;;;17.89
65180;BMP280;51849;47.476;8.084;2022-10-22T09:42:11;96653.63;;;17.95
65180;BMP280;51849;47.476;8.084;2022-10-22T09:44:39;96664.56;;;17.99
65180;BMP280;51849;47.476;8.084;2022-10-22T09:47:27;96664.84;;;18.08
65180;BMP280;51849;47.476;8.084;2022-10-22T09:50:24;96667.16;;;18.12
65180;BMP280;51849;47.476;8.084;2022-10-22T09:53:11;96662.66;;;18.20
65180;BMP280;51849;47.476;8.084;2022-10-22T09:55:39;96665.16;;;18.25
65180;BMP280;51849;47.476;8.084;2022-10-22T09:58:10;96669.88;;;18.40
65180;BMP280;51849;47.476;8.084;2022-10-22T10:00:38;96673.50;;;18.37
65180;BMP280;51849;47.476;8.084;2022-10-22T10:03:15;96667.22;;;18.40
65180;BMP280;51849;47.476;8.084;2022-10-22T10:05:41;96669.00;;;18.45
65180;BMP280;51849;47.476;8.084;2022-10-22T10:08:13;96666.75;;;18.49
65180;BMP280;51849;47.476;8.084;2022-10-22T10:11:08;96675.59;;;18.59
65180;BMP280;51849;47.476;8.084;2022-10-22T10:13:45;96670.00;;;18.63
65180;BMP280;51849;47.476;8.084;2022-10-22T10:16:37;96673.25;;;18.76
65180;BMP280;51849;47.476;8.084;2022-10-22T10:19:22;96673.41;;;18.78
65180;BMP280;51849;47.476;8.084;2022-10-22T10:22:00;96683.88;;;18.91
65180;BMP280;51849;47.476;8.084;2022-10-22T10:30:18;96684.66;;;19.07
65180;BMP280;51849;47.476;8.084;2022-10-22T10:35:53;96688.06;;;19.22
65180;BMP280;51849;47.476;8.084;2022-10-22T10:38:41;96687.91;;;19.20
65180;BMP280;51849;47.476;8.084;2022-10-22T10:41:15;96689.69;;;19.25
65180;BMP280;51849;47.476;8.084;2022-10-22T10:43:51;96689.38;;;19.36
65180;BMP280;51849;47.476;8.084;2022-10-22T10:48:55;96686.09;;;19.51
65180;BMP280;51849;47.476;8.084;2022-10-22T10:57:02;96678.47;;;19.47
65180;BMP280;51849;47.476;8.084;2022-10-22T11:08:01;96681.66;;;19.46
65180;BMP280;51849;47.476;8.084;2022-10-22T11:10:36;96676.84;;;19.44
65180;BMP280;51849;47.476;8.084;2022-10-22T11:13:10;96672.66;;;19.56
65180;BMP280;51849;47.476;8.084;2022-10-22T11:15:38;96669.69;;;19.67
65180;BMP280;51849;47.476;8.084;2022-10-22T11:18:29;96671.47;;;19.72
65180;BMP280;51849;47.476;8.084;2022-10-22T11:29:20;96659.81;;;19.68
65180;BMP280;51849;47.476;8.084;2022-10-22T11:31:48;96656.47;;;19.75
65180;BMP280;51849;47.476;8.084;2022-10-22T11:34:19;96656.66;;;19.77
65180;BMP280;51849;47.476;8.084;2022-10-22T11:36:47;96667.06;;;19.82
65180;BMP280;51849;47.476;8.084;2022-10-22T11:39:53;96664.22;;;19.65
65180;BMP280;51849;47.476;8.084;2022-10-22T11:42:23;96662.44;;;19.53
65180;BMP280;51849;47.476;8.084;2022-10-22T11:50:44;96663.00;;;19.89
65180;BMP280;51849;47.476;8.084;2022-10-22T12:00:53;96643.59;;;20.16
65180;BMP280;51849;47.476;8.084;2022-10-22T12:11:35;96651.00;;;20.18
65180;BMP280;51849;47.476;8.084;2022-10-22T12:17:09;96645.53;;;20.01
65180;BMP280;51849;47.476;8.084;2022-10-22T12:19:48;96652.06;;;19.92
65180;BMP280;51849;47.476;8.084;2022-10-22T12:22:25;96654.72;;;19.92
65180;BMP280;51849;47.476;8.084;2022-10-22T12:24:54;96646.41;;;20.03
65180;BMP280;51849;47.476;8.084;2022-10-22T12:27:35;96642.34;;;20.17
65180;BMP280;51849;47.476;8.084;2022-10-22T12:30:17;96647.09;;;20.26
65180;BMP280;51849;47.476;8.084;2022-10-22T12:32:43;96644.44;;;20.34
65180;BMP280;51849;47.476;8.084;2022-10-22T12:35:18;96643.38;;;20.52
65180;BMP280;51849;47.476;8.084;2022-10-22T12:37:43;96635.03;;;20.63
65180;BMP280;51849;47.476;8.084;2022-10-22T12:43:09;96639.06;;;20.72
65180;BMP280;51849;47.476;8.084;2022-10-22T12:45:35;96634.97;;;20.70
65180;BMP280;51849;47.476;8.084;2022-10-22T12:48:04;96624.38;;;20.70
65180;BMP280;51849;47.476;8.084;2022-10-22T12:50:35;96627.41;;;20.67
65180;BMP280;51849;47.476;8.084;2022-10-22T12:53:05;96627.94;;;20.65
65180;BMP280;51849;47.476;8.084;2022-10-22T12:55:32;96625.28;;;20.65
65180;BMP280;51849;47.476;8.084;2022-10-22T12:57:58;96633.56;;;20.69
65180;BMP280;51849;47.476;8.084;2022-10-22T13:00:27;96628.69;;;20.51
65180;BMP280;51849;47.476;8.084;2022-10-22T13:02:53;96620.97;;;20.30
65180;BMP280;51849;47.476;8.084;2022-10-22T13:07:51;96626.63;;;20.19
65180;BMP280;51849;47.476;8.084;2022-10-22T13:10:23;96623.44;;;20.36
65180;BMP280;51849;47.476;8.084;2022-10-22T13:12:54;96612.81;;;20.28
65180;BMP280;51849;47.476;8.084;2022-10-22T13:18:22;96617.78;;;20.32
65180;BMP280;51849;47.476;8.084;2022-10-22T13:21:25;96612.66;;;20.34
65180;BMP280;51849;47.476;8.084;2022-10-22T13:23:56;96607.88;;;20.40
65180;BMP280;51849;47.476;8.084;2022-10-22T13:26:25;96607.84;;;20.47
65180;BMP280;51849;47.476;8.084;2022-10-22T13:28:55;96603.78;;;20.46
65180;BMP280;51849;47.476;8.084;2022-10-22T13:31:25;96604.31;;;20.45
65180;BMP280;51849;47.476;8.084;2022-10-22T13:33:56;96601.72;;;20.30
65180;BMP280;51849;47.476;8.084;2022-10-22T13:36:23;96606.47;;;20.31
65180;BMP280;51849;47.476;8.084;2022-10-22T13:38:49;96600.63;;;20.33
65180;BMP280;51849;47.476;8.084;2022-10-22T13:43:44;96599.22;;;20.39
65180;BMP280;51849;47.476;8.084;2022-10-22T13:46:10;96596.59;;;20.24
65180;BMP280;51849;47.476;8.084;2022-10-22T13:48:36;96595.03;;;20.21
65180;BMP280;51849;47.476;8.084;2022-10-22T13:51:05;96594.84;;;20.19
65180;BMP280;51849;47.476;8.084;2022-10-22T13:53:32;96583.91;;;20.15
65180;BMP280;51849;47.476;8.084;2022-10-22T13:55:57;96586.56;;;20.15
65180;BMP280;51849;47.476;8.084;2022-10-22T13:58:23;96591.31;;;20.09
65180;BMP280;51849;47.476;8.084;2022-10-22T14:00:54;96592.38;;;20.14
65180;BMP280;51849;47.476;8.084;2022-10-22T14:03:25;96594.31;;;20.13
65180;BMP280;51849;47.476;8.084;2022-10-22T14:05:51;96597.50;;;20.19
65180;BMP280;51849;47.476;8.084;2022-10-22T14:08:21;96595.88;;;20.24
65180;BMP280;51849;47.476;8.084;2022-10-22T14:10:47;96589.91;;;20.23
65180;BMP280;51849;47.476;8.084;2022-10-22T14:13:16;96594.50;;;20.23
65180;BMP280;51849;47.476;8.084;2022-10-22T14:15:44;96591.28;;;20.24
65180;BMP280;51849;47.476;8.084;2022-10-22T14:18:17;96586.53;;;20.23
65180;BMP280;51849;47.476;8.084;2022-10-22T14:20:50;96585.97;;;20.24
65180;BMP280;51849;47.476;8.084;2022-10-22T14:23:21;96597.66;;;20.21
65180;BMP280;51849;47.476;8.084;2022-10-22T14:25:48;96597.66;;;20.21
65180;BMP280;51849;47.476;8.084;2022-10-22T14:28:15;96593.44;;;20.18
65180;BMP280;51849;47.476;8.084;2022-10-22T14:30:42;96589.53;;;20.19
65180;BMP280;51849;47.476;8.084;2022-10-22T14:33:13;96591.28;;;20.24
65180;BMP280;51849;47.476;8.084;2022-10-22T14:35:39;96592.75;;;20.10
65180;BMP280;51849;47.476;8.084;2022-10-22T14:38:04;96594.88;;;19.97
65180;BMP280;51849;47.476;8.084;2022-10-22T14:40:30;96602.66;;;19.95
65180;BMP280;51849;47.476;8.084;2022-10-22T14:42:56;96596.47;;;19.92
65180;BMP280;51849;47.476;8.084;2022-10-22T14:45:24;96602.63;;;19.87
65180;BMP280;51849;47.476;8.084;2022-10-22T14:47:51;96585.69;;;19.83
65180;BMP280;51849;47.476;8.084;2022-10-22T14:50:20;96589.06;;;19.76
65180;BMP280;51849;47.476;8.084;2022-10-22T14:52:48;96594.50;;;19.78
65180;BMP280;51849;47.476;8.084;2022-10-22T14:55:15;96595.41;;;19.80
65180;BMP280;51849;47.476;8.084;2022-10-22T14:57:44;96589.06;;;19.76
65180;BMP280;51849;47.476;8.084;2022-10-22T15:00:15;96585.00;;;19.67
65180;BMP280;51849;47.476;8.084;2022-10-22T15:02:41;96577.44;;;19.64
65180;BMP280;51849;47.476;8.084;2022-10-22T15:05:07;96572.28;;;19.58
65180;BMP280;51849;47.476;8.084;2022-10-22T15:07:33;96577.94;;;19.55
65180;BMP280;51849;47.476;8.084;2022-10-22T15:09:59;96583.94;;;19.55
65180;BMP280;51849;47.476;8.084;2022-10-22T15:12:25;96583.59;;;19.51
65180;BMP280;51849;47.476;8.084;2022-10-22T15:14:50;96575.28;;;19.47
65180;BMP280;51849;47.476;8.084;2022-10-22T15:17:16;96580.75;;;19.49
65180;BMP280;51849;47.476;8.084;2022-10-22T15:19:42;96583.22;;;19.40
65180;BMP280;51849;47.476;8.084;2022-10-22T15:22:09;96584.97;;;19.37
65180;BMP280;51849;47.476;8.084;2022-10-22T15:24:35;96593.28;;;19.41
65180;BMP280;51849;47.476;8.084;2022-10-22T15:27:03;96599.06;;;19.32
65180;BMP280;51849;47.476;8.084;2022-10-22T15:29:29;96601.19;;;19.26
65180;BMP280;51849;47.476;8.084;2022-10-22T15:31:57;96601.00;;;19.24
65180;BMP280;51849;47.476;8.084;2022-10-22T15:34:27;96605.59;;;19.24
65180;BMP280;51849;47.476;8.084;2022-10-22T15:36:56;96592.16;;;19.14
65180;BMP280;51849;47.476;8.084;2022-10-22T15:39:22;96602.38;;;19.10
65180;BMP280;51849;47.476;8.084;2022-10-22T15:41:49;96599.38;;;19.06
65180;BMP280;51849;47.476;8.084;2022-10-22T15:44:17;96601.06;;;18.96
65180;BMP280;51849;47.476;8.084;2022-10-22T15:46:45;96601.41;;;18.85
65180;BMP280;51849;47.476;8.084;2022-10-22T15:49:11;96608.22;;;18.73
65180;BMP280;51849;47.476;8.084;2022-10-22T15:51:37;96607.94;;;18.56
65180;BMP280;51849;47.476;8.084;2022-10-22T15:54:03;96607.72;;;18.47
65180;BMP280;51849;47.476;8.084;2022-10-22T15:56:29;96606.78;;;18.36
65180;BMP280;51849;47.476;8.084;2022-10-22T15:59:00;96611.25;;;18.21
65180;BMP280;51849;47.476;8.084;2022-10-22T16:01:29;96609.81;;;18.12
65180;BMP280;51849;47.476;8.084;2022-10-22T16:03:55;96611.09;;;17.98